sensor_id;sensor_type;location;lat;lon;timestamp;pressure;altitude;pressure_sealevel;temperature
79495;BMP180;68951;53.130;18.104;2024-02-21T00:00:27;101428.00;;;
79495;BMP180;68951;53.130;18.104;2024-02-21T00:03:14;101428.00;;;
79495;BMP180;68951;53.130;18.104;2024-02-21T00:05:41;101427.80;;;
79495;BMP180;68951;53.130;18.104;2024-02-21T00:08:08;101427.40;;;
79495;BMP180;68951;53.130;18.104;2024-02-21T00:10:34;101425.00;;;
79495;BMP180;68951;53.130;18.104;2024-02-21T00:13:02;101421.40;;;
79495;BMP180;68951;53.130;18.104;2024-02-21T00:15:29;101418.00;;;
79495;BMP180;68951;53.130;18.104;2024-02-21T00:17:56;101419.20;;;
79495;BMP180;68951;53.130;18.104;2024-02-21T00:20:24;101420.40;;;
79495;BMP180;68951;53.130;18.104;2024-02-21T00:22:52;101417.20;;;
79495;BMP180;68951;53.130;18.104;2024-02-21T00:25:19;101416.00;;;
79495;BMP180;68951;53.130;18.104;2024-02-21T00:27:46;101413.80;;;
79495;BMP180;68951;53.130;18.104;2024-02-21T00:30:13;101418.40;;;
79495;BMP180;68951;53.130;18.104;2024-02-21T00:32:40;101416.00;;;
79495;BMP180;68951;53.130;18.104;2024-02-21T00:35:07;101411.60;;;
79495;BMP180;68951;53.130;18.104;2024-02-21T00:37:34;101411.00;;;
79495;BMP180;68951;53.130;18.104;2024-02-21T00:40:01;101403.60;;;
79495;BMP180;68951;53.130;18.104;2024-02-21T00:42:27;101403.20;;;
79495;BMP180;68951;53.130;18.104;2024-02-21T00:44:54;101402.60;;;
79495;BMP180;68951;53.130;18.104;2024-02-21T00:47:21;101403.80;;;
79495;BMP180;68951;53.130;18.104;2024-02-21T00:49:48;101396.20;;;
79495;BMP180;68951;53.130;18.104;2024-02-21T00:52:15;101392.60;;;
79495;BMP180;68951;53.130;18.104;2024-02-21T00:54:41;101394.40;;;
79495;BMP180;68951;53.130;18.104;2024-02-21T00:57:08;101395.00;;;
79495;BMP180;68951;53.130;18.104;2024-02-21T00:59:35;101393.60;;;
79495;BMP180;68951;53.130;18.104;2024-02-21T01:02:01;101392.00;;;
79495;BMP180;68951;53.130;18.104;2024-02-21T01:04:28;101384.80;;;
79495;BMP180;68951;53.130;18.104;2024-02-21T01:06:55;101382.60;;;
79495;BMP180;68951;53.130;18.104;2024-02-21T01:09:22;101376.00;;;
79495;BMP180;68951;53.130;18.104;2024-02-21T01:11:48;101373.00;;;
79495;BMP180;68951;53.130;18.104;2024-02-21T01:14:15;101373.80;;;
79495;BMP180;68951;53.130;18.104;2024-02-21T01:16:42;101371.80;;;
79495;BMP180;68951;53.130;18.104;2024-02-21T01:19:09;101366.20;;;
79495;BMP180;68951;53.130;18.104;2024-02-21T01:21:35;101361.00;;;
79495;BMP180;68951;53.130;18.104;2024-02-21T01:24:02;101361.40;;;
79495;BMP180;68951;53.130;18.104;2024-02-21T01:26:29;101354.60;;;
79495;BMP180;68951;53.130;18.104;2024-02-21T01:28:56;101354.60;;;
79495;BMP180;68951;53.130;18.104;2024-02-21T01:31:23;101354.60;;;
79495;BMP180;68951;53.130;18.104;2024-02-21T01:33:49;101349.60;;;
79495;BMP180;68951;53.130;18.104;2024-02-21T01:36:16;101348.40;;;
79495;BMP180;68951;53.130;18.104;2024-02-21T01:38:43;101346.40;;;
79495;BMP180;68951;53.130;18.104;2024-02-21T01:41:10;101339.80;;;
79495;BMP180;68951;53.130;18.104;2024-02-21T01:43:37;101340.80;;;
79495;BMP180;68951;53.130;18.104;2024-02-21T01:46:03;101345.00;;;
79495;BMP180;68951;53.130;18.104;2024-02-21T01:48:30;101341.00;;;
79495;BMP180;68951;53.130;18.104;2024-02-21T01:50:57;101337.60;;;
79495;BMP180;68951;53.130;18.104;2024-02-21T01:53:35;101331.80;;;
79495;BMP180;68951;53.130;18.104;2024-02-21T01:56:05;101339.20;;;
79495;BMP180;68951;53.130;18.104;2024-02-21T01:58:36;101343.00;;;
79495;BMP180;68951;53.130;18.104;2024-02-21T02:01:06;101327.20;;;
79495;BMP180;68951;53.130;18.104;2024-02-21T02:03:34;101326.60;;;
79495;BMP180;68951;53.130;18.104;2024-02-21T02:06:01;101328.80;;;
79495;BMP180;68951;53.130;18.104;2024-02-21T02:08:28;101325.20;;;
79495;BMP180;68951;53.130;18.104;2024-02-21T02:10:55;101326.60;;;
79495;BMP180;68951;53.130;18.104;2024-02-21T02:13:22;101322.20;;;
79495;BMP180;68951;53.130;18.104;2024-02-21T02:15:49;101320.20;;;
79495;BMP180;68951;53.130;18.104;2024-02-21T02:18:19;101315.60;;;
79495;BMP180;68951;53.130;18.104;2024-02-21T02:20:46;101315.20;;;
79495;BMP180;68951;53.130;18.104;2024-02-21T02:25:48;101308.80;;;
79495;BMP180;68951;53.130;18.104;2024-02-21T02:28:18;101303.20;;;
79495;BMP180;68951;53.130;18.104;2024-02-21T02:30:46;101304.20;;;
79495;BMP180;68951;53.130;18.104;2024-02-21T02:33:13;101302.40;;;
79495;BMP180;68951;53.130;18.104;2024-02-21T02:35:40;101298.00;;;
79495;BMP180;68951;53.130;18.104;2024-02-21T02:38:06;101300.20;;;
79495;BMP180;68951;53.130;18.104;2024-02-21T02:40:34;101297.00;;;
79495;BMP180;68951;53.130;18.104;2024-02-21T02:43:01;101298.80;;;
79495;BMP180;68951;53.130;18.104;2024-02-21T02:45:29;101296.80;;;
79495;BMP180;68951;53.130;18.104;2024-02-21T02:47:56;101292.20;;;
79495;BMP180;68951;53.130;18.104;2024-02-21T02:50:24;101288.00;;;
79495;BMP180;68951;53.130;18.104;2024-02-21T02:52:52;101286.00;;;
79495;BMP180;68951;53.130;18.104;2024-02-21T02:55:20;101282.60;;;
79495;BMP180;68951;53.130;18.104;2024-02-21T02:57:47;101276.40;;;
79495;BMP180;68951;53.130;18.104;2024-02-21T03:00:14;101270.20;;;
79495;BMP180;68951;53.130;18.104;2024-02-21T03:02:45;101273.60;;;
79495;BMP180;68951;53.130;18.104;2024-02-21T03:05:15;101266.40;;;
79495;BMP180;68951;53.130;18.104;2024-02-21T03:07:43;101265.20;;;
79495;BMP180;68951;53.130;18.104;2024-02-21T03:10:11;101267.40;;;
79495;BMP180;68951;53.130;18.104;2024-02-21T03:12:39;101270.60;;;
79495;BMP180;68951;53.130;18.104;2024-02-21T03:15:06;101268.00;;;
79495;BMP180;68951;53.130;18.104;2024-02-21T03:17:34;101264.80;;;
79495;BMP180;68951;53.130;18.104;2024-02-21T03:20:05;101267.80;;;
79495;BMP180;68951;53.130;18.104;2024-02-21T03:22:32;101267.40;;;
79495;BMP180;68951;53.130;18.104;2024-02-21T03:24:59;101263.20;;;
79495;BMP180;68951;53.130;18.104;2024-02-21T03:27:26;101265.80;;;
79495;BMP180;68951;53.130;18.104;2024-02-21T03:29:53;101261.00;;;
79495;BMP180;68951;53.130;18.104;2024-02-21T03:32:20;101260.40;;;
79495;BMP180;68951;53.130;18.104;2024-02-21T03:34:47;101258.80;;;
79495;BMP180;68951;53.130;18.104;2024-02-21T03:37:14;101254.40;;;
79495;BMP180;68951;53.130;18.104;2024-02-21T03:39:41;101253.40;;;
79495;BMP180;68951;53.130;18.104;2024-02-21T03:42:07;101248.20;;;
79495;BMP180;68951;53.130;18.104;2024-02-21T03:44:34;101244.60;;;
79495;BMP180;68951;53.130;18.104;2024-02-21T03:47:02;101250.40;;;
79495;BMP180;68951;53.130;18.104;2024-02-21T03:49:28;101246.00;;;
79495;BMP180;68951;53.130;18.104;2024-02-21T03:51:55;101241.00;;;
79495;BMP180;68951;53.130;18.104;2024-02-21T03:54:22;101237.00;;;
79495;BMP180;68951;53.130;18.104;2024-02-21T03:56:49;101235.40;;;
79495;BMP180;68951;53.130;18.104;2024-02-21T03:59:16;101233.40;;;
79495;BMP180;68951;53.130;18.104;2024-02-21T04:01:43;101236.00;;;
79495;BMP180;68951;53.130;18.104;2024-02-21T04:04:10;101234.40;;;
79495;BMP180;68951;53.130;18.104;2024-02-21T04:06:46;101231.80;;;
79495;BMP180;68951;53.130;18.104;2024-02-21T04:09:12;101226.60;;;
79495;BMP180;68951;53.130;18.104;2024-02-21T04:11:39;101230.60;;;
79495;BMP180;68951;53.130;18.104;2024-02-21T04:14:06;101229.60;;;
79495;BMP180;68951;53.130;18.104;2024-02-21T04:16:34;101226.60;;;
79495;BMP180;68951;53.130;18.104;2024-02-21T04:19:01;101223.40;;;
79495;BMP180;68951;53.130;18.104;2024-02-21T04:21:31;101220.60;;;
79495;BMP180;68951;53.130;18.104;2024-02-21T04:23:57;101213.80;;;
79495;BMP180;68951;53.130;18.104;2024-02-21T04:26:25;101211.00;;;
79495;BMP180;68951;53.130;18.104;2024-02-21T04:28:51;101209.20;;;
79495;BMP180;68951;53.130;18.104;2024-02-21T04:31:18;101214.20;;;
79495;BMP180;68951;53.130;18.104;2024-02-21T04:33:45;101204.20;;;
79495;BMP180;68951;53.130;18.104;2024-02-21T04:36:12;101204.20;;;
79495;BMP180;68951;53.130;18.104;2024-02-21T04:38:39;101200.60;;;
79495;BMP180;68951;53.130;18.104;2024-02-21T04:41:07;101193.60;;;
79495;BMP180;68951;53.130;18.104;2024-02-21T04:43:34;101194.00;;;
79495;BMP180;68951;53.130;18.104;2024-02-21T04:46:01;101191.00;;;
79495;BMP180;68951;53.130;18.104;2024-02-21T04:48:28;101194.00;;;
79495;BMP180;68951;53.130;18.104;2024-02-21T04:50:55;101196.40;;;
79495;BMP180;68951;53.130;18.104;2024-02-21T04:53:22;101189.40;;;
79495;BMP180;68951;53.130;18.104;2024-02-21T04:55:49;101184.20;;;
79495;BMP180;68951;53.130;18.104;2024-02-21T04:58:16;101190.40;;;
79495;BMP180;68951;53.130;18.104;2024-02-21T05:00:43;101179.60;;;
79495;BMP180;68951;53.130;18.104;2024-02-21T05:03:09;101175.00;;;
79495;BMP180;68951;53.130;18.104;2024-02-21T05:05:37;101176.40;;;
79495;BMP180;68951;53.130;18.104;2024-02-21T05:08:04;101173.40;;;
79495;BMP180;68951;53.130;18.104;2024-02-21T05:10:31;101174.60;;;
79495;BMP180;68951;53.130;18.104;2024-02-21T05:12:58;101171.20;;;
79495;BMP180;68951;53.130;18.104;2024-02-21T05:15:25;101173.20;;;
79495;BMP180;68951;53.130;18.104;2024-02-21T05:17:52;101165.00;;;
79495;BMP180;68951;53.130;18.104;2024-02-21T05:20:19;101161.80;;;
79495;BMP180;68951;53.130;18.104;2024-02-21T05:22:46;101160.20;;;
79495;BMP180;68951;53.130;18.104;2024-02-21T05:25:13;101157.80;;;
79495;BMP180;68951;53.130;18.104;2024-02-21T05:27:40;101155.60;;;
79495;BMP180;68951;53.130;18.104;2024-02-21T05:30:07;101153.40;;;
79495;BMP180;68951;53.130;18.104;2024-02-21T05:32:34;101143.60;;;
79495;BMP180;68951;53.130;18.104;2024-02-21T05:35:01;101136.00;;;
79495;BMP180;68951;53.130;18.104;2024-02-21T05:37:28;101135.80;;;
79495;BMP180;68951;53.130;18.104;2024-02-21T05:39:55;101132.60;;;
79495;BMP180;68951;53.130;18.104;2024-02-21T05:42:21;101134.20;;;
79495;BMP180;68951;53.130;18.104;2024-02-21T05:44:48;101139.20;;;
79495;BMP180;68951;53.130;18.104;2024-02-21T05:47:15;101142.00;;;
79495;BMP180;68951;53.130;18.104;2024-02-21T05:49:42;101137.20;;;
79495;BMP180;68951;53.130;18.104;2024-02-21T05:52:09;101131.40;;;
79495;BMP180;68951;53.130;18.104;2024-02-21T05:54:38;101127.60;;;
79495;BMP180;68951;53.130;18.104;2024-02-21T05:57:07;101126.20;;;
79495;BMP180;68951;53.130;18.104;2024-02-21T05:59:34;101130.60;;;
79495;BMP180;68951;53.130;18.104;2024-02-21T06:02:03;101124.80;;;
79495;BMP180;68951;53.130;18.104;2024-02-21T06:04:30;101121.80;;;
79495;BMP180;68951;53.130;18.104;2024-02-21T06:06:57;101113.80;;;
79495;BMP180;68951;53.130;18.104;2024-02-21T06:09:24;101115.80;;;
79495;BMP180;68951;53.130;18.104;2024-02-21T06:11:51;101113.00;;;
79495;BMP180;68951;53.130;18.104;2024-02-21T06:14:18;101115.20;;;
79495;BMP180;68951;53.130;18.104;2024-02-21T06:16:44;101111.00;;;
79495;BMP180;68951;53.130;18.104;2024-02-21T06:19:11;101112.80;;;
79495;BMP180;68951;53.130;18.104;2024-02-21T06:21:38;101110.60;;;
79495;BMP180;68951;53.130;18.104;2024-02-21T06:24:05;101116.40;;;
79495;BMP180;68951;53.130;18.104;2024-02-21T06:26:32;101106.20;;;
79495;BMP180;68951;53.130;18.104;2024-02-21T06:28:59;101110.40;;;
79495;BMP180;68951;53.130;18.104;2024-02-21T06:31:29;101103.40;;;
79495;BMP180;68951;53.130;18.104;2024-02-21T06:33:55;101105.60;;;
79495;BMP180;68951;53.130;18.104;2024-02-21T06:36:22;101102.80;;;
79495;BMP180;68951;53.130;18.104;2024-02-21T06:38:49;101100.20;;;
79495;BMP180;68951;53.130;18.104;2024-02-21T06:41:17;101099.20;;;
79495;BMP180;68951;53.130;18.104;2024-02-21T06:43:48;101101.60;;;
79495;BMP180;68951;53.130;18.104;2024-02-21T06:46:29;101096.40;;;
79495;BMP180;68951;53.130;18.104;2024-02-21T06:48:56;101091.60;;;
79495;BMP180;68951;53.130;18.104;2024-02-21T06:51:23;101089.40;;;
79495;BMP180;68951;53.130;18.104;2024-02-21T06:53:50;101090.20;;;
79495;BMP180;68951;53.130;18.104;2024-02-21T06:56:17;101085.60;;;
79495;BMP180;68951;53.130;18.104;2024-02-21T06:58:44;101084.00;;;
79495;BMP180;68951;53.130;18.104;2024-02-21T07:01:11;101082.20;;;
79495;BMP180;68951;53.130;18.104;2024-02-21T07:03:38;101084.20;;;
79495;BMP180;68951;53.130;18.104;2024-02-21T07:06:04;101080.40;;;
79495;BMP180;68951;53.130;18.104;2024-02-21T07:08:31;101085.80;;;
79495;BMP180;68951;53.130;18.104;2024-02-21T07:10:58;101076.00;;;
79495;BMP180;68951;53.130;18.104;2024-02-21T07:13:25;101070.40;;;
79495;BMP180;68951;53.130;18.104;2024-02-21T07:15:52;101069.80;;;
79495;BMP180;68951;53.130;18.104;2024-02-21T07:18:18;101064.80;;;
79495;BMP180;68951;53.130;18.104;2024-02-21T07:20:46;101059.20;;;
79495;BMP180;68951;53.130;18.104;2024-02-21T07:23:12;101048.80;;;
79495;BMP180;68951;53.130;18.104;2024-02-21T07:25:39;101052.00;;;
79495;BMP180;68951;53.130;18.104;2024-02-21T07:28:06;101046.40;;;
79495;BMP180;68951;53.130;18.104;2024-02-21T07:30:33;101049.20;;;
79495;BMP180;68951;53.130;18.104;2024-02-21T07:33:00;101043.60;;;
79495;BMP180;68951;53.130;18.104;2024-02-21T07:35:27;101052.80;;;
79495;BMP180;68951;53.130;18.104;2024-02-21T07:37:54;101051.00;;;
79495;BMP180;68951;53.130;18.104;2024-02-21T07:40:20;101048.40;;;
79495;BMP180;68951;53.130;18.104;2024-02-21T07:42:47;101045.40;;;
79495;BMP180;68951;53.130;18.104;2024-02-21T07:45:14;101047.40;;;
79495;BMP180;68951;53.130;18.104;2024-02-21T07:47:41;101037.60;;;
79495;BMP180;68951;53.130;18.104;2024-02-21T07:50:08;101041.80;;;
79495;BMP180;68951;53.130;18.104;2024-02-21T07:52:34;101044.40;;;
79495;BMP180;68951;53.130;18.104;2024-02-21T07:55:01;101039.40;;;
79495;BMP180;68951;53.130;18.104;2024-02-21T07:57:29;101039.80;;;
79495;BMP180;68951;53.130;18.104;2024-02-21T07:59:56;101042.40;;;
79495;BMP180;68951;53.130;18.104;2024-02-21T08:02:22;101048.40;;;
79495;BMP180;68951;53.130;18.104;2024-02-21T08:04:49;101040.60;;;
79495;BMP180;68951;53.130;18.104;2024-02-21T08:07:16;101036.60;;;
79495;BMP180;68951;53.130;18.104;2024-02-21T08:09:43;101030.40;;;
79495;BMP180;68951;53.130;18.104;2024-02-21T08:12:09;101026.40;;;
79495;BMP180;68951;53.130;18.104;2024-02-21T08:14:36;101025.20;;;
79495;BMP180;68951;53.130;18.104;2024-02-21T08:17:03;101016.00;;;
79495;BMP180;68951;53.130;18.104;2024-02-21T08:19:30;101014.60;;;
79495;BMP180;68951;53.130;18.104;2024-02-21T08:21:57;101013.00;;;
79495;BMP180;68951;53.130;18.104;2024-02-21T08:24:24;101013.80;;;
79495;BMP180;68951;53.130;18.104;2024-02-21T08:26:51;101005.40;;;
79495;BMP180;68951;53.130;18.104;2024-02-21T08:29:17;101002.80;;;
79495;BMP180;68951;53.130;18.104;2024-02-21T08:31:44;101001.60;;;
79495;BMP180;68951;53.130;18.104;2024-02-21T08:34:11;101000.00;;;
79495;BMP180;68951;53.130;18.104;2024-02-21T08:36:39;100990.00;;;
79495;BMP180;68951;53.130;18.104;2024-02-21T08:39:06;100990.80;;;
79495;BMP180;68951;53.130;18.104;2024-02-21T08:41:34;100997.60;;;
79495;BMP180;68951;53.130;18.104;2024-02-21T08:44:01;101001.40;;;
79495;BMP180;68951;53.130;18.104;2024-02-21T08:46:28;101011.80;;;
79495;BMP180;68951;53.130;18.104;2024-02-21T08:48:55;101007.80;;;
79495;BMP180;68951;53.130;18.104;2024-02-21T08:51:21;101016.60;;;
79495;BMP180;68951;53.130;18.104;2024-02-21T08:53:49;101006.20;;;
79495;BMP180;68951;53.130;18.104;2024-02-21T08:56:16;101000.20;;;
79495;BMP180;68951;53.130;18.104;2024-02-21T08:58:43;101000.20;;;
79495;BMP180;68951;53.130;18.104;2024-02-21T09:01:10;100992.20;;;
79495;BMP180;68951;53.130;18.104;2024-02-21T09:03:38;101002.40;;;
79495;BMP180;68951;53.130;18.104;2024-02-21T09:06:06;100992.60;;;
79495;BMP180;68951;53.130;18.104;2024-02-21T09:08:34;100984.60;;;
79495;BMP180;68951;53.130;18.104;2024-02-21T09:11:00;100988.40;;;
79495;BMP180;68951;53.130;18.104;2024-02-21T09:13:28;100988.80;;;
79495;BMP180;68951;53.130;18.104;2024-02-21T09:15:55;100979.80;;;
79495;BMP180;68951;53.130;18.104;2024-02-21T09:18:22;100984.80;;;
79495;BMP180;68951;53.130;18.104;2024-02-21T09:20:48;100985.20;;;
79495;BMP180;68951;53.130;18.104;2024-02-21T09:23:16;100980.60;;;
79495;BMP180;68951;53.130;18.104;2024-02-21T09:25:43;100973.00;;;
79495;BMP180;68951;53.130;18.104;2024-02-21T09:28:10;100969.00;;;
79495;BMP180;68951;53.130;18.104;2024-02-21T09:30:37;100969.60;;;
79495;BMP180;68951;53.130;18.104;2024-02-21T09:33:04;100977.20;;;
79495;BMP180;68951;53.130;18.104;2024-02-21T09:35:31;100973.60;;;
79495;BMP180;68951;53.130;18.104;2024-02-21T09:38:00;100975.60;;;
79495;BMP180;68951;53.130;18.104;2024-02-21T09:40:27;100970.20;;;
79495;BMP180;68951;53.130;18.104;2024-02-21T09:43:02;100967.20;;;
79495;BMP180;68951;53.130;18.104;2024-02-21T09:45:34;100967.80;;;
79495;BMP180;68951;53.130;18.104;2024-02-21T09:50:57;100956.60;;;
79495;BMP180;68951;53.130;18.104;2024-02-21T09:53:26;100965.80;;;
79495;BMP180;68951;53.130;18.104;2024-02-21T09:55:54;100964.60;;;
79495;BMP180;68951;53.130;18.104;2024-02-21T09:58:23;100958.00;;;
79495;BMP180;68951;53.130;18.104;2024-02-21T10:00:50;100960.00;;;
79495;BMP180;68951;53.130;18.104;2024-02-21T10:03:17;100956.60;;;
79495;BMP180;68951;53.130;18.104;2024-02-21T10:05:48;100961.00;;;
79495;BMP180;68951;53.130;18.104;2024-02-21T10:08:19;100956.80;;;
79495;BMP180;68951;53.130;18.104;2024-02-21T10:10:46;100960.60;;;
79495;BMP180;68951;53.130;18.104;2024-02-21T10:13:27;100965.20;;;
79495;BMP180;68951;53.130;18.104;2024-02-21T10:16:05;100964.00;;;
79495;BMP180;68951;53.130;18.104;2024-02-21T10:18:34;100961.80;;;
79495;BMP180;68951;53.130;18.104;2024-02-21T10:23:48;100963.20;;;
79495;BMP180;68951;53.130;18.104;2024-02-21T10:26:17;100954.20;;;
79495;BMP180;68951;53.130;18.104;2024-02-21T10:28:44;100958.00;;;
79495;BMP180;68951;53.130;18.104;2024-02-21T10:31:25;100953.80;;;
79495;BMP180;68951;53.130;18.104;2024-02-21T10:34:02;100951.80;;;
79495;BMP180;68951;53.130;18.104;2024-02-21T10:36:29;100940.20;;;
79495;BMP180;68951;53.130;18.104;2024-02-21T10:38:56;100940.60;;;
79495;BMP180;68951;53.130;18.104;2024-02-21T10:41:24;100945.80;;;
79495;BMP180;68951;53.130;18.104;2024-02-21T10:43:53;100937.80;;;
79495;BMP180;68951;53.130;18.104;2024-02-21T10:46:23;100939.40;;;
79495;BMP180;68951;53.130;18.104;2024-02-21T10:49:08;100935.00;;;
79495;BMP180;68951;53.130;18.104;2024-02-21T10:51:43;100921.80;;;
79495;BMP180;68951;53.130;18.104;2024-02-21T10:54:43;100923.40;;;
79495;BMP180;68951;53.130;18.104;2024-02-21T10:57:13;100920.40;;;
79495;BMP180;68951;53.130;18.104;2024-02-21T10:59:40;100904.20;;;
79495;BMP180;68951;53.130;18.104;2024-02-21T11:02:08;100902.80;;;
79495;BMP180;68951;53.130;18.104;2024-02-21T11:04:36;100903.20;;;
79495;BMP180;68951;53.130;18.104;2024-02-21T11:07:05;100900.40;;;
79495;BMP180;68951;53.130;18.104;2024-02-21T11:09:33;100901.60;;;
79495;BMP180;68951;53.130;18.104;2024-02-21T11:12:05;100889.40;;;
79495;BMP180;68951;53.130;18.104;2024-02-21T11:14:33;100890.20;;;
79495;BMP180;68951;53.130;18.104;2024-02-21T11:17:18;100881.40;;;
79495;BMP180;68951;53.130;18.104;2024-02-21T11:19:45;100876.00;;;
79495;BMP180;68951;53.130;18.104;2024-02-21T11:22:19;100865.20;;;
79495;BMP180;68951;53.130;18.104;2024-02-21T11:24:49;100862.00;;;
79495;BMP180;68951;53.130;18.104;2024-02-21T11:27:19;100862.00;;;
79495;BMP180;68951;53.130;18.104;2024-02-21T11:29:58;100856.20;;;
79495;BMP180;68951;53.130;18.104;2024-02-21T11:32:26;100850.60;;;
79495;BMP180;68951;53.130;18.104;2024-02-21T11:37:33;100842.20;;;
79495;BMP180;68951;53.130;18.104;2024-02-21T11:40:00;100837.80;;;
79495;BMP180;68951;53.130;18.104;2024-02-21T11:42:28;100834.00;;;
79495;BMP180;68951;53.130;18.104;2024-02-21T11:44:57;100828.40;;;
79495;BMP180;68951;53.130;18.104;2024-02-21T11:47:24;100823.00;;;
79495;BMP180;68951;53.130;18.104;2024-02-21T11:49:51;100826.80;;;
79495;BMP180;68951;53.130;18.104;2024-02-21T11:52:22;100825.40;;;
79495;BMP180;68951;53.130;18.104;2024-02-21T11:54:52;100824.60;;;
79495;BMP180;68951;53.130;18.104;2024-02-21T11:57:19;100821.60;;;
79495;BMP180;68951;53.130;18.104;2024-02-21T11:59:46;100816.60;;;
79495;BMP180;68951;53.130;18.104;2024-02-21T12:02:15;100829.40;;;
79495;BMP180;68951;53.130;18.104;2024-02-21T12:04:43;100830.00;;;
79495;BMP180;68951;53.130;18.104;2024-02-21T12:07:10;100829.40;;;
79495;BMP180;68951;53.130;18.104;2024-02-21T12:09:37;100828.80;;;
79495;BMP180;68951;53.130;18.104;2024-02-21T12:12:05;100823.00;;;
79495;BMP180;68951;53.130;18.104;2024-02-21T12:14:35;100817.20;;;
79495;BMP180;68951;53.130;18.104;2024-02-21T12:17:02;100813.40;;;
79495;BMP180;68951;53.130;18.104;2024-02-21T12:19:34;100805.80;;;
79495;BMP180;68951;53.130;18.104;2024-02-21T12:22:01;100801.00;;;
79495;BMP180;68951;53.130;18.104;2024-02-21T12:24:32;100803.00;;;
79495;BMP180;68951;53.130;18.104;2024-02-21T12:26:59;100799.60;;;
79495;BMP180;68951;53.130;18.104;2024-02-21T12:29:26;100805.20;;;
79495;BMP180;68951;53.130;18.104;2024-02-21T12:31:53;100811.00;;;
79495;BMP180;68951;53.130;18.104;2024-02-21T12:34:26;100805.60;;;
79495;BMP180;68951;53.130;18.104;2024-02-21T12:36:53;100801.80;;;
79495;BMP180;68951;53.130;18.104;2024-02-21T12:39:20;100812.60;;;
79495;BMP180;68951;53.130;18.104;2024-02-21T12:41:47;100818.00;;;
79495;BMP180;68951;53.130;18.104;2024-02-21T12:44:14;100809.20;;;
79495;BMP180;68951;53.130;18.104;2024-02-21T12:46:41;100804.40;;;
79495;BMP180;68951;53.130;18.104;2024-02-21T12:49:08;100800.60;;;
79495;BMP180;68951;53.130;18.104;2024-02-21T12:51:35;100801.20;;;
79495;BMP180;68951;53.130;18.104;2024-02-21T12:54:02;100805.00;;;
79495;BMP180;68951;53.130;18.104;2024-02-21T12:56:31;100804.00;;;
79495;BMP180;68951;53.130;18.104;2024-02-21T12:58:58;100811.60;;;
79495;BMP180;68951;53.130;18.104;2024-02-21T13:01:25;100807.80;;;
79495;BMP180;68951;53.130;18.104;2024-02-21T13:03:53;100803.80;;;
79495;BMP180;68951;53.130;18.104;2024-02-21T13:06:20;100795.20;;;
79495;BMP180;68951;53.130;18.104;2024-02-21T13:08:47;100800.80;;;
79495;BMP180;68951;53.130;18.104;2024-02-21T13:11:14;100794.80;;;
79495;BMP180;68951;53.130;18.104;2024-02-21T13:13:41;100796.80;;;
79495;BMP180;68951;53.130;18.104;2024-02-21T13:16:08;100790.00;;;
79495;BMP180;68951;53.130;18.104;2024-02-21T13:18:35;100785.20;;;
79495;BMP180;68951;53.130;18.104;2024-02-21T13:21:05;100777.20;;;
79495;BMP180;68951;53.130;18.104;2024-02-21T13:23:32;100776.60;;;
79495;BMP180;68951;53.130;18.104;2024-02-21T13:25:59;100774.00;;;
79495;BMP180;68951;53.130;18.104;2024-02-21T13:28:27;100773.00;;;
79495;BMP180;68951;53.130;18.104;2024-02-21T13:30:54;100777.40;;;
79495;BMP180;68951;53.130;18.104;2024-02-21T13:33:20;100779.40;;;
79495;BMP180;68951;53.130;18.104;2024-02-21T13:35:47;100779.00;;;
79495;BMP180;68951;53.130;18.104;2024-02-21T13:38:14;100765.80;;;
79495;BMP180;68951;53.130;18.104;2024-02-21T13:40:41;100768.60;;;
79495;BMP180;68951;53.130;18.104;2024-02-21T13:43:08;100763.00;;;
79495;BMP180;68951;53.130;18.104;2024-02-21T13:45:35;100762.00;;;
79495;BMP180;68951;53.130;18.104;2024-02-21T13:48:03;100760.20;;;
79495;BMP180;68951;53.130;18.104;2024-02-21T13:50:32;100754.00;;;
79495;BMP180;68951;53.130;18.104;2024-02-21T13:53:01;100769.80;;;
79495;BMP180;68951;53.130;18.104;2024-02-21T13:55:27;100752.80;;;
79495;BMP180;68951;53.130;18.104;2024-02-21T13:57:54;100750.60;;;
79495;BMP180;68951;53.130;18.104;2024-02-21T14:00:21;100743.60;;;
79495;BMP180;68951;53.130;18.104;2024-02-21T14:02:48;100742.80;;;
79495;BMP180;68951;53.130;18.104;2024-02-21T14:05:15;100747.80;;;
79495;BMP180;68951;53.130;18.104;2024-02-21T14:07:41;100747.60;;;
79495;BMP180;68951;53.130;18.104;2024-02-21T14:10:08;100747.80;;;
79495;BMP180;68951;53.130;18.104;2024-02-21T14:12:36;100743.80;;;
79495;BMP180;68951;53.130;18.104;2024-02-21T14:15:04;100742.80;;;
79495;BMP180;68951;53.130;18.104;2024-02-21T14:17:31;100743.60;;;
79495;BMP180;68951;53.130;18.104;2024-02-21T14:19:58;100741.40;;;
79495;BMP180;68951;53.130;18.104;2024-02-21T14:35:16;100734.00;;;
79495;BMP180;68951;53.130;18.104;2024-02-21T14:37:43;100729.40;;;
79495;BMP180;68951;53.130;18.104;2024-02-21T14:40:11;100726.60;;;
79495;BMP180;68951;53.130;18.104;2024-02-21T14:42:38;100723.00;;;
79495;BMP180;68951;53.130;18.104;2024-02-21T14:45:06;100728.60;;;
79495;BMP180;68951;53.130;18.104;2024-02-21T14:47:33;100713.00;;;
79495;BMP180;68951;53.130;18.104;2024-02-21T14:50:03;100707.40;;;
79495;BMP180;68951;53.130;18.104;2024-02-21T14:52:32;100705.20;;;
79495;BMP180;68951;53.130;18.104;2024-02-21T14:54:59;100712.40;;;
79495;BMP180;68951;53.130;18.104;2024-02-21T14:57:29;100712.40;;;
79495;BMP180;68951;53.130;18.104;2024-02-21T14:59:56;100716.60;;;
79495;BMP180;68951;53.130;18.104;2024-02-21T15:02:25;100711.80;;;
79495;BMP180;68951;53.130;18.104;2024-02-21T15:04:54;100712.20;;;
79495;BMP180;68951;53.130;18.104;2024-02-21T15:07:21;100703.60;;;
79495;BMP180;68951;53.130;18.104;2024-02-21T15:09:52;100708.60;;;
79495;BMP180;68951;53.130;18.104;2024-02-21T15:12:19;100699.80;;;
79495;BMP180;68951;53.130;18.104;2024-02-21T15:14:45;100698.40;;;